Date,TemperatureHighF,TemperatureAvgF,TemperatureLowF,DewpointHighF,DewpointAvgF,DewpointLowF,HumidityHigh,HumidityAvg,HumidityLow,PressureMaxIn,PressureMinIn,WindSpeedMaxMPH,WindSpeedAvgMPH,GustSpeedMaxMPH,PrecipitationSumIn
2013-1-1,-200.0,0.0,200.0,-99.9,-99.9,-99.9,0,0,100,0.00,40.00,12,8,21,0.00
2013-1-2,-18.0,-6.2,-19.0,-18.0,-72.9,-99.9,100,33,100,0.00,40.00,12,9,20,0.00
2013-1-3,29.0,-1.7,-20.0,18.0,-7.2,-20.0,100,82,48,0.00,40.00,12,8,20,0.00
2013-1-4,30.0,28.6,27.0,26.0,22.7,18.0,92,78,65,0.00,40.00,10,7,18,0.00
2013-1-5,29.0,27.8,27.0,24.0,22.1,20.0,88,78,71,0.00,40.00,13,8,20,0.00
2013-1-6,38.0,31.2,28.0,34.0,28.2,22.0,92,88,77,0.00,40.00,6,5,9,0.00
2013-1-7,47.0,43.0,36.0,43.0,39.5,33.0,92,87,82,0.00,40.00,6,4,8,0.00
2013-1-8,51.0,46.2,41.0,42.0,39.4,38.0,89,77,63,0.00,40.00,8,3,17,0.00
2013-1-9,48.0,40.2,34.0,39.0,34.5,31.0,92,80,62,0.00,40.00,5,2,9,0.00
2013-1-10,34.0,32.2,31.0,32.0,29.9,29.0,92,91,88,0.00,40.00,3,2,3,0.00
2013-1-11,38.0,31.8,28.0,29.0,25.9,21.0,92,80,56,0.00,40.00,6,2,7,0.00
2013-1-12,38.0,28.9,26.0,25.0,22.5,20.0,88,77,49,0.00,40.00,5,1,7,0.00
2013-1-13,34.0,25.7,21.0,21.0,18.5,16.0,88,74,51,0.00,40.00,5,2,8,0.00
2013-1-14,31.0,26.8,25.0,29.0,23.2,20.0,92,86,77,0.00,40.00,6,2,8,0.00
2013-1-15,34.0,31.8,31.0,32.0,29.7,29.0,92,92,88,0.00,40.00,5,2,6,0.00
2013-1-16,32.0,30.8,29.0,30.0,28.4,25.0,92,91,84,0.00,40.00,9,3,16,0.00
2013-1-17,32.0,29.1,27.0,24.0,21.4,20.0,81,72,63,0.00,40.00,15,12,22,0.00
2013-1-18,38.0,31.2,26.0,26.0,22.1,20.0,81,69,49,0.00,40.00,15,8,20,0.00
2013-1-19,35.0,30.4,28.0,26.0,23.0,21.0,84,74,56,0.00,40.00,15,11,23,0.00
2013-1-20,31.0,27.8,26.0,21.0,20.2,19.0,81,73,60,0.00,40.00,14,11,25,0.00
2013-1-21,30.0,26.4,25.0,19.0,18.7,18.0,77,72,60,0.00,40.00,13,12,27,0.00
2013-1-22,27.0,25.9,25.0,18.0,17.6,17.0,74,70,65,0.00,40.00,18,12,28,0.00
2013-1-23,32.0,27.0,26.0,30.0,19.8,16.0,92,74,65,0.00,40.00,15,8,24,0.00
2013-1-24,38.0,34.1,31.0,33.0,29.8,28.0,92,84,66,0.00,40.00,9,5,14,0.00
2013-1-25,44.0,37.3,34.0,41.0,34.8,31.0,92,90,88,0.00,40.00,7,4,10,0.00
2013-1-26,41.0,38.2,36.0,38.0,33.5,31.0,92,83,75,0.00,40.00,3,2,5,0.00
2013-1-27,39.0,35.8,34.0,34.0,32.8,32.0,92,88,82,0.00,40.00,5,2,8,0.00
2013-1-28,39.0,36.8,35.0,36.0,34.3,33.0,92,90,88,0.00,40.00,6,3,7,0.00
2013-1-29,41.0,39.2,38.0,38.0,36.7,35.0,92,90,88,0.00,40.00,5,3,9,0.00
2013-1-31,47.0,43.7,42.0,41.0,40.0,39.0,92,87,79,0.00,40.00,2,2,3,0.00
2013-2-1,50.0,46.8,44.0,35.0,30.2,28.0,65,52,47,0.00,40.00,6,4,12,0.00
2013-2-2,48.0,42.9,38.0,31.0,28.9,27.0,66,57,49,0.00,40.00,9,6,17,0.00
2013-2-3,43.0,39.7,34.0,37.0,34.2,29.0,92,80,72,0.00,40.00,5,2,7,0.00
2013-2-4,44.0,41.9,40.0,36.0,33.4,31.0,82,72,59,0.00,40.00,3,1,5,0.00
2013-2-5,45.0,41.8,40.0,38.0,35.9,33.0,85,79,70,0.00,40.00,5,3,6,0.00
2013-2-6,44.0,41.9,40.0,35.0,33.8,31.0,82,72,62,0.00,40.00,7,3,13,0.00
2013-2-7,46.0,38.9,34.0,35.0,30.3,26.0,88,72,45,0.00,40.00,3,1,7,0.00
2013-2-8,37.0,33.5,29.0,30.0,27.7,26.0,96,80,66,0.00,40.00,5,2,5,0.00
2013-2-9,39.0,36.3,34.0,36.0,31.2,27.0,92,81,75,0.00,40.00,3,1,5,0.00
2013-2-10,40.0,38.2,36.0,36.0,32.2,29.0,92,78,67,0.00,40.00,2,1,2,0.00
2013-2-11,39.0,38.1,37.0,37.0,32.5,28.0,92,80,66,0.00,40.00,3,2,5,0.00
2013-2-12,48.0,43.2,40.0,42.0,39.4,37.0,92,86,73,0.00,40.00,3,2,6,0.00
2013-2-13,45.0,43.3,41.0,42.0,38.8,36.0,89,84,76,0.00,40.00,3,2,5,0.00
2013-2-14,50.0,42.1,38.0,36.0,34.2,31.0,88,74,47,0.00,40.00,3,1,5,0.00
2013-2-15,52.0,44.0,38.0,36.0,32.4,31.0,88,65,46,0.00,40.00,8,5,12,0.00
2013-2-16,44.0,40.2,37.0,41.0,35.4,32.0,92,83,62,0.00,40.00,6,3,9,0.00
2013-2-17,40.0,37.0,34.0,33.0,28.4,22.0,85,72,50,0.00,40.00,3,1,3,0.00
2013-2-18,43.0,36.8,33.0,28.0,25.9,24.0,75,64,50,0.00,40.00,3,2,7,0.00
2013-2-19,49.0,38.9,33.0,28.0,25.8,22.0,75,60,34,0.00,40.00,7,4,9,0.00
2013-2-20,42.0,37.9,35.0,34.0,31.3,28.0,88,77,57,0.00,40.00,3,2,5,0.00
2013-2-21,38.0,37.1,36.0,34.0,33.1,31.0,92,85,75,0.00,40.00,5,3,8,0.00
2013-2-22,41.0,39.3,37.0,37.0,34.2,29.0,88,81,72,0.00,40.00,6,4,12,0.00
2013-2-23,40.0,35.7,34.0,33.0,30.9,29.0,88,82,75,0.00,40.00,6,2,7,0.00
2013-2-24,48.0,39.6,34.0,30.0,27.8,25.0,81,63,41,0.00,40.00,3,1,3,0.00
2013-2-25,42.0,37.8,35.0,36.0,32.3,28.0,92,80,57,0.00,40.00,9,3,10,0.00
2013-2-26,42.0,38.0,35.0,31.0,29.7,27.0,85,72,54,0.00,40.00,3,2,6,0.00
2013-2-27,47.0,42.8,39.0,38.0,32.8,28.0,82,67,60,0.00,40.00,3,1,5,0.00
2013-2-28,50.0,45.7,41.0,46.0,42.5,39.0,92,88,79,0.00,40.00,5,2,9,0.00
2013-3-1,56.0,51.3,49.0,44.0,43.5,42.0,82,75,61,0.00,40.00,5,2,6,0.00
2013-3-2,49.0,46.0,39.0,43.0,40.5,35.0,89,81,68,0.00,40.00,5,2,8,0.00
2013-3-3,46.0,38.8,34.0,33.0,28.4,22.0,85,67,41,0.00,40.00,3,2,5,0.00
2013-3-4,49.0,39.2,32.0,27.0,20.5,15.0,78,50,28,0.00,40.00,6,4,13,0.00
2013-3-5,40.0,37.6,36.0,33.0,23.4,15.0,88,59,37,0.00,40.00,7,5,13,0.00
2013-3-6,40.0,37.1,35.0,36.0,33.2,31.0,92,86,72,0.00,40.00,8,4,13,0.00
2013-3-7,55.0,44.1,38.0,31.0,27.2,21.0,75,53,30,0.00,40.00,3,2,6,0.00
2013-3-8,55.0,41.7,33.0,29.0,27.5,25.0,81,59,36,0.00,40.00,7,3,12,0.00
2013-3-9,56.0,43.4,34.0,31.0,27.4,21.0,81,56,32,0.00,40.00,5,1,6,0.00
2013-3-10,46.0,43.6,42.0,40.0,36.4,30.0,92,77,53,0.00,40.00,5,2,5,0.00
2013-3-11,48.0,45.2,41.0,44.0,41.8,39.0,92,87,79,0.00,40.00,3,1,5,0.00
2013-3-12,54.0,49.8,48.0,45.0,42.4,39.0,89,76,58,0.00,40.00,3,2,6,0.00
2013-3-13,61.0,51.1,46.0,40.0,38.1,35.0,73,62,42,0.00,40.00,2,1,5,0.00
2013-3-14,56.0,50.7,48.0,42.0,38.0,33.0,73,62,45,0.00,40.00,5,4,7,0.00
2013-3-15,61.0,52.5,48.0,44.0,40.1,35.0,79,64,42,0.00,40.00,3,2,5,0.00
2013-3-16,46.0,42.4,37.0,42.0,38.6,33.0,92,86,79,0.00,40.00,5,3,8,0.00
2013-3-17,41.0,36.7,34.0,33.0,30.5,25.0,92,79,52,0.00,40.00,6,3,7,0.00
2013-3-18,48.0,39.4,35.0,32.0,29.0,26.0,88,68,43,0.00,40.00,5,2,7,0.00
2013-3-19,43.0,38.8,36.0,35.0,27.8,23.0,92,66,44,0.00,40.00,10,6,17,0.00
2013-3-20,50.0,41.2,36.0,41.0,34.1,28.0,92,77,53,0.00,40.00,10,7,14,0.00
2013-3-21,40.0,35.3,33.0,32.0,29.7,27.0,88,80,67,0.00,40.00,6,3,10,0.00
2013-3-22,38.0,33.8,31.0,32.0,29.9,28.0,92,85,66,0.00,40.00,5,2,6,0.00
2013-3-23,45.0,36.8,31.0,31.0,26.6,19.0,92,70,36,0.00,40.00,2,2,3,0.00
2013-3-24,47.0,39.9,33.0,27.0,23.0,21.0,75,52,35,0.00,40.00,7,4,10,0.00
2013-3-25,52.0,44.9,38.0,26.0,22.1,19.0,48,40,30,0.00,40.00,7,4,13,0.00
2013-3-26,50.0,45.3,40.0,37.0,32.8,27.0,70,61,47,0.00,40.00,5,2,6,0.00
2013-3-27,63.0,48.8,41.0,45.0,36.8,32.0,89,66,33,0.00,40.00,5,2,7,0.00
2013-3-28,59.0,50.4,44.0,44.0,38.6,32.0,92,67,35,0.00,40.00,5,2,7,0.00
2013-3-29,64.0,54.2,47.0,44.0,40.0,36.0,82,60,39,0.00,40.00,3,1,6,0.00
2013-3-30,60.0,50.1,46.0,39.0,37.1,35.0,68,61,43,0.00,40.00,7,6,10,0.00
2013-3-31,56.0,56.0,56.0,37.0,37.0,37.0,48,48,48,0.00,40.00,2,2,3,0.00
2013-4-1,58.0,55.8,54.0,44.0,43.0,42.0,68,62,55,0.00,40.00,2,1,3,0.00
2013-4-2,61.0,53.7,47.0,44.0,41.7,39.0,89,66,44,0.00,40.00,5,2,5,0.00
2013-4-3,56.0,56.0,56.0,38.0,38.0,38.0,50,50,50,0.00,40.00,3,3,7,0.00
2013-4-4,55.0,52.8,51.0,49.0,42.2,38.0,86,67,54,0.00,40.00,9,4,12,0.00
2013-4-5,52.0,49.7,48.0,45.0,41.7,39.0,89,74,61,0.00,40.00,6,4,12,0.00
2013-4-6,48.0,44.7,40.0,43.0,39.8,37.0,89,83,70,0.00,40.00,5,2,8,0.00
2013-4-7,46.0,42.2,38.0,42.0,36.9,34.0,92,81,70,0.00,40.00,9,4,14,0.00
2013-4-8,48.0,41.6,38.0,42.0,37.2,35.0,92,84,68,0.00,40.00,3,1,5,0.00
2013-4-9,51.0,44.8,38.0,39.0,36.3,34.0,92,73,52,0.00,40.00,2,1,3,0.00
2013-4-10,53.0,49.1,44.0,49.0,36.9,31.0,86,63,52,0.00,40.00,6,3,9,0.00
2013-4-11,52.0,44.7,38.0,35.0,32.8,30.0,85,63,50,0.00,40.00,5,2,6,0.00
2013-4-12,50.0,41.4,35.0,40.0,33.6,29.0,92,75,49,0.00,40.00,5,2,7,0.00
2013-4-13,45.0,39.8,35.0,36.0,30.8,23.0,92,72,41,0.00,40.00,6,2,8,0.00
2013-4-15,49.0,44.2,40.0,37.0,31.7,29.0,73,62,51,0.00,40.00,3,2,5,0.00
2013-4-16,53.0,42.4,37.0,35.0,33.5,30.0,92,72,41,0.00,40.00,3,1,7,0.00
2013-4-17,56.0,44.6,35.0,34.0,30.8,25.0,88,62,29,0.00,40.00,5,2,6,0.00
2013-4-18,53.0,46.9,41.0,43.0,34.7,32.0,85,63,46,0.00,40.00,2,1,3,0.00
2013-4-19,49.0,46.9,45.0,46.0,43.7,41.0,92,88,79,0.00,40.00,5,2,9,0.00
2013-4-20,53.0,47.4,43.0,42.0,37.8,32.0,92,71,44,0.00,40.00,5,2,6,0.00
2013-4-21,48.0,44.2,42.0,43.0,38.9,34.0,92,81,70,0.00,40.00,2,1,5,0.00
2013-4-22,62.0,49.1,38.0,38.0,28.0,18.0,92,52,20,0.00,40.00,3,2,7,0.00
2013-4-23,63.0,50.7,39.0,32.0,25.1,21.0,50,37,25,0.00,40.00,5,3,9,0.00
2013-4-24,71.0,57.1,44.0,30.0,26.5,23.0,44,31,21,0.00,40.00,6,2,8,0.00
2013-4-25,69.0,57.0,46.0,37.0,32.4,26.0,53,40,28,0.00,40.00,3,2,5,0.00
2013-4-26,73.0,57.2,43.0,43.0,36.9,28.0,85,52,24,0.00,40.00,3,2,6,0.00
2013-4-27,69.0,56.7,47.0,42.0,34.2,29.0,71,44,30,0.00,40.00,3,2,6,0.00
2013-4-28,61.0,52.1,46.0,45.0,38.4,28.0,92,64,32,0.00,40.00,3,2,6,0.00
2013-4-29,53.0,47.1,39.0,43.0,33.5,22.0,89,62,34,0.00,40.00,7,2,13,0.00
2013-4-30,50.0,42.6,36.0,31.0,27.5,23.0,78,57,38,0.00,40.00,2,1,5,0.00
2013-5-1,62.0,45.3,34.0,30.0,27.4,25.0,85,53,26,0.00,40.00,3,2,6,0.00
2013-5-2,69.0,59.0,48.0,30.0,26.5,22.0,35,28,23,0.00,40.00,5,4,14,0.00
2013-5-3,63.0,59.0,55.0,40.0,38.0,36.0,48,45,42,0.00,40.00,2,2,3,0.00
2013-5-16,64.0,64.0,64.0,45.0,45.0,45.0,49,49,49,0.00,40.00,1,1,1,0.00
2013-6-3,67.0,66.5,66.0,42.0,41.5,41.0,41,40,38,0.00,40.00,1,1,1,0.00
2013-6-4,75.0,72.0,69.0,46.0,44.5,43.0,38,36,35,0.00,40.00,2,1,2,0.00
2013-6-5,77.0,66.8,55.0,53.0,47.9,43.0,71,52,32,0.00,40.00,1,1,2,0.00
2013-6-6,76.0,63.6,53.0,51.0,48.9,44.0,89,61,37,0.00,40.00,2,1,3,0.00
2013-6-7,70.0,56.2,50.0,46.0,37.3,34.0,69,50,27,0.00,40.00,2,1,3,0.00
2013-6-8,72.0,58.6,48.0,47.0,42.0,34.0,89,60,28,0.00,40.00,3,1,7,0.00
2013-6-9,67.0,57.8,48.0,44.0,41.9,39.0,82,57,35,0.00,40.00,3,1,5,0.00
2013-6-10,64.0,49.5,45.0,42.0,39.8,37.0,82,70,41,0.00,40.00,2,1,3,0.00
2013-6-11,60.0,51.8,48.0,47.0,40.8,37.0,89,66,47,0.00,40.00,3,1,5,0.00
2013-6-12,59.0,53.0,49.0,48.0,44.2,40.0,92,73,53,0.00,40.00,1,0,2,0.00
2013-6-13,57.0,50.6,46.0,49.0,45.9,44.0,92,84,64,0.00,40.00,2,1,6,0.00
2013-6-14,63.0,56.4,49.0,45.0,43.4,42.0,86,64,46,0.00,40.00,1,0,1,0.00
2013-6-15,74.0,63.9,50.0,48.0,45.8,44.0,82,55,35,0.00,40.00,1,1,3,0.00
2013-6-16,58.0,54.8,51.0,47.0,45.5,42.0,86,72,55,0.00,40.00,1,0,1,0.00
2013-6-22,71.0,62.0,53.0,47.0,45.0,43.0,79,58,36,0.00,40.00,1,0,2,0.00
2013-6-23,63.0,61.8,60.0,57.0,54.8,53.0,86,78,69,0.00,40.00,1,0,2,0.00
2013-6-25,59.0,59.0,59.0,52.0,52.0,52.0,77,77,77,0.00,40.00,1,1,2,0.00
2013-7-28,65.0,59.5,54.0,46.0,45.5,45.0,71,60,50,0.00,40.00,1,1,1,0.00
2013-7-30,56.0,56.0,56.0,51.0,51.0,51.0,83,83,83,0.00,40.00,1,1,1,0.00
2013-7-31,66.0,59.3,55.0,54.0,52.3,51.0,89,79,58,0.00,40.00,1,0,2,0.00
2013-8-1,53.0,53.0,53.0,51.0,50.5,50.0,92,90,89,0.00,40.00,1,0,1,0.00
2013-8-2,58.0,57.0,56.0,49.0,48.5,48.0,74,72,71,0.00,40.00,1,0,1,0.00
2013-8-4,82.0,72.8,58.0,55.0,53.4,51.0,80,53,35,0.00,40.00,1,0,1,0.00
2013-8-5,69.0,69.0,69.0,52.0,52.0,52.0,54,54,54,0.00,40.00,1,1,1,0.00
2013-8-6,83.0,68.5,60.0,52.0,51.2,50.0,72,56,31,0.00,40.00,2,1,3,0.00
2013-8-7,80.0,71.3,65.0,50.0,48.3,46.0,58,45,33,0.00,40.00,2,1,6,0.00
2013-8-8,65.0,60.1,55.0,55.0,51.7,48.0,86,74,60,0.00,40.00,3,2,3,0.00
2013-8-10,62.0,60.0,59.0,59.0,57.0,56.0,89,89,89,0.00,40.00,1,0,1,0.00
2013-8-11,69.0,63.0,57.0,53.0,51.5,50.0,83,67,52,0.00,40.00,2,1,2,0.00